Time;durP1;ratioP1;P1;durP2;ratioP2;P2;SDS_P1;SDS_P2;PMS_P1;PMS_P2;Temp;Humidity;BMP_temperature;BMP_pressure;BME280_temperature;BME280_humidity;BME280_pressure;Samples;Min_cycle;Max_cycle;Signal;HPM_P1;HPM_P2
2023/01/22 00:01:07;;;;;;;22.63;17.23;;;;;;;-0.96;100.00;103235.50;4719001;30;20553;-65
2023/01/22 00:03:36;;;;;;;23.08;17.42;;;;;;;-0.93;100.00;103235.22;4718667;30;20410;-65
2023/01/22 00:06:04;;;;;;;24.88;18.08;;;;;;;-0.88;100.00;103238.34;4701677;30;20503;-65
2023/01/22 00:08:32;;;;;;;24.33;18.15;;;;;;;-0.95;100.00;103236.34;4703455;30;20056;-64
2023/01/22 00:11:00;;;;;;;24.65;17.90;;;;;;;-1.02;100.00;103233.34;4703734;30;20646;-67
2023/01/22 00:13:28;;;;;;;24.65;18.52;;;;;;;-1.05;100.00;103230.94;4717714;30;20049;-64
2023/01/22 00:15:57;;;;;;;24.70;19.20;;;;;;;-1.09;100.00;103234.84;4688811;30;20068;-64
2023/01/22 00:18:25;;;;;;;23.92;18.33;;;;;;;-1.15;100.00;103240.72;4716213;30;20049;-64
2023/01/22 00:20:54;;;;;;;24.40;18.33;;;;;;;-1.17;100.00;103230.16;4719411;30;20519;-65
2023/01/22 00:23:22;;;;;;;24.77;18.30;;;;;;;-1.16;100.00;103239.03;4719844;30;20076;-65
2023/01/22 00:26:03;;;;;;;22.63;16.77;;;;;;;-1.16;100.00;103231.00;4713389;30;20081;-65
2023/01/22 00:28:32;;;;;;;23.10;17.23;;;;;;;-1.12;100.00;103230.59;4718495;30;20123;-65
2023/01/22 00:31:01;;;;;;;22.15;17.17;;;;;;;-1.08;100.00;103231.22;4730896;30;20089;-62
2023/01/22 00:33:28;;;;;;;21.95;16.77;;;;;;;-1.02;100.00;103232.50;4719483;30;20110;-63
2023/01/22 00:36:02;;;;;;;22.40;16.65;;;;;;;-1.01;100.00;103231.50;4723772;30;20061;-65
2023/01/22 00:38:30;;;;;;;22.50;16.55;;;;;;;-0.97;100.00;103233.78;4689693;30;20085;-64
2023/01/22 00:41:03;;;;;;;23.20;16.95;;;;;;;-1.02;100.00;103225.31;4703436;30;20143;-65
2023/01/22 00:43:32;;;;;;;23.23;16.95;;;;;;;-1.05;100.00;103224.75;4689454;30;20128;-65
2023/01/22 00:46:00;;;;;;;22.85;16.33;;;;;;;-1.06;100.00;103229.22;4704260;30;20084;-65
2023/01/22 00:48:28;;;;;;;21.77;17.10;;;;;;;-1.10;100.00;103217.09;4719376;30;20075;-66
2023/01/22 00:50:56;;;;;;;21.48;16.08;;;;;;;-1.12;100.00;103219.91;4703566;30;20055;-65
2023/01/22 00:53:24;;;;;;;21.95;16.88;;;;;;;-1.15;100.00;103222.00;4703681;30;20049;-65
2023/01/22 00:55:54;;;;;;;22.25;16.77;;;;;;;-1.17;100.00;103221.28;4717426;30;20056;-66
2023/01/22 00:58:22;;;;;;;21.63;16.80;;;;;;;-1.21;100.00;103220.69;4717008;30;20052;-65
2023/01/22 01:00:50;;;;;;;22.08;16.60;;;;;;;-1.18;100.00;103209.75;4688918;30;20099;-65
2023/01/22 01:03:31;;;;;;;20.95;16.00;;;;;;;-1.23;100.00;103211.09;4718204;30;20080;-66
2023/01/22 01:06:19;;;;;;;22.17;16.70;;;;;;;-1.25;100.00;103208.56;4706284;30;20132;-65
2023/01/22 01:08:47;;;;;;;21.35;16.17;;;;;;;-1.24;100.00;103198.72;4716356;30;20483;-65
2023/01/22 01:11:20;;;;;;;21.85;16.92;;;;;;;-1.16;100.00;103201.56;4704945;30;20488;-65
2023/01/22 01:13:49;;;;;;;23.92;16.73;;;;;;;-1.19;100.00;103191.97;4703560;30;20077;-65
2023/01/22 01:16:23;;;;;;;19.98;15.73;;;;;;;-1.17;100.00;103192.69;4703624;30;20053;-64
2023/01/22 01:18:51;;;;;;;20.13;15.60;;;;;;;-1.20;100.00;103205.47;4704646;30;20061;-65
2023/01/22 01:21:18;;;;;;;20.10;15.23;;;;;;;-1.23;100.00;103205.75;4706301;30;20084;-65
2023/01/22 01:23:46;;;;;;;21.92;16.20;;;;;;;-1.23;100.00;103205.75;4706368;30;20064;-64
2023/01/22 01:26:15;;;;;;;21.52;15.48;;;;;;;-1.20;100.00;103200.13;4719992;30;20071;-65
2023/01/22 01:28:44;;;;;;;20.95;15.45;;;;;;;-1.20;100.00;103190.31;4720087;30;20053;-65
2023/01/22 01:31:14;;;;;;;20.55;15.18;;;;;;;-1.18;100.00;103198.19;4704520;30;20092;-64
2023/01/22 01:33:42;;;;;;;20.73;15.68;;;;;;;-1.16;100.00;103198.91;4705175;30;20049;-67
2023/01/22 01:36:14;;;;;;;20.73;15.80;;;;;;;-1.24;100.00;103199.56;4706030;30;20065;-65
2023/01/22 01:38:42;;;;;;;21.35;15.57;;;;;;;-1.23;100.00;103195.06;4706382;30;20063;-65
2023/01/22 01:41:16;;;;;;;20.30;15.52;;;;;;;-1.20;100.00;103201.00;4705437;30;20053;-67
2023/01/22 01:43:44;;;;;;;19.50;15.85;;;;;;;-1.17;100.00;103189.19;4721468;30;20056;-65
2023/01/22 01:46:18;;;;;;;22.13;16.20;;;;;;;-1.17;100.00;103194.53;4691576;30;20068;-65
2023/01/22 01:48:47;;;;;;;19.33;14.77;;;;;;;-1.21;100.00;103187.75;4720397;30;20053;-65
2023/01/22 01:51:35;;;;;;;20.35;15.65;;;;;;;-1.20;100.00;103186.75;4705433;30;20103;-64
2023/01/22 01:54:04;;;;;;;18.85;14.85;;;;;;;-1.19;100.00;103181.28;4704350;30;20411;-66
2023/01/22 01:56:38;;;;;;;21.67;16.42;;;;;;;-1.18;100.00;103182.13;4720443;30;20493;-64
2023/01/22 01:59:09;;;;;;;19.45;15.07;;;;;;;-1.19;100.00;103180.44;4721221;30;20049;-66
2023/01/22 02:01:37;;;;;;;21.02;15.70;;;;;;;-1.23;100.00;103173.66;4705378;30;20067;-65
2023/01/22 02:04:05;;;;;;;19.85;15.50;;;;;;;-1.24;100.00;103171.97;4719456;30;20049;-65
2023/01/22 02:06:33;;;;;;;20.30;15.23;;;;;;;-1.19;100.00;103161.72;4716210;30;20057;-64
2023/01/22 02:09:01;;;;;;;17.73;14.60;;;;;;;-1.25;100.00;103156.88;4697535;30;20057;-66
2023/01/22 02:11:30;;;;;;;17.85;14.07;;;;;;;-1.38;100.00;103144.56;4705588;30;20060;-65
2023/01/22 02:14:04;;;;;;;21.30;15.18;;;;;;;-1.32;100.00;103144.06;4690300;30;20504;-64
2023/01/22 02:16:32;;;;;;;20.73;14.75;;;;;;;-1.36;100.00;103156.00;4704692;30;20414;-65
2023/01/22 02:19:01;;;;;;;19.38;14.63;;;;;;;-1.43;100.00;103152.16;4705374;30;20084;-63
2023/01/22 02:21:34;;;;;;;20.38;14.52;;;;;;;-1.44;100.00;103150.47;4719469;30;20080;-65
2023/01/22 02:24:04;;;;;;;18.77;13.68;;;;;;;-1.34;100.00;103161.22;4719802;30;20097;-64
2023/01/22 02:26:33;;;;;;;18.45;13.57;;;;;;;-1.24;100.00;103164.78;4715894;30;20054;-65
2023/01/22 02:29:01;;;;;;;18.70;13.98;;;;;;;-1.17;100.00;103154.41;4712657;30;20049;-64
2023/01/22 02:31:30;;;;;;;17.67;13.57;;;;;;;-1.13;100.00;103153.16;4719016;30;20057;-64
2023/01/22 02:34:00;;;;;;;19.00;13.93;;;;;;;-1.07;100.00;103160.66;4719778;30;20071;-64
2023/01/22 02:36:31;;;;;;;19.73;14.75;;;;;;;-1.07;100.00;103157.97;4706499;30;20087;-66
2023/01/22 02:38:59;;;;;;;18.35;13.68;;;;;;;-1.12;100.00;103153.03;4704210;30;20045;-63
2023/01/22 02:41:27;;;;;;;17.27;13.07;;;;;;;-1.19;100.00;103151.84;4692147;30;20057;-64
2023/01/22 02:43:57;;;;;;;18.17;13.52;;;;;;;-1.24;100.00;103158.59;4722298;30;20453;-63
2023/01/22 02:46:25;;;;;;;18.20;13.30;;;;;;;-1.30;100.00;103162.63;4707084;30;20497;-65
2023/01/22 02:48:53;;;;;;;16.27;13.00;;;;;;;-1.24;100.00;103167.47;4705694;30;20057;-65
2023/01/22 02:51:21;;;;;;;16.75;12.70;;;;;;;-1.17;100.00;103167.78;4689803;30;20199;-64
2023/01/22 02:53:49;;;;;;;16.23;12.40;;;;;;;-1.03;100.00;103167.44;4721540;30;20522;-64
2023/01/22 02:56:18;;;;;;;16.50;12.23;;;;;;;-0.91;100.00;103174.41;4718657;30;20053;-63
2023/01/22 02:58:46;;;;;;;16.45;11.90;;;;;;;-0.84;100.00;103173.84;4690703;30;20069;-65
2023/01/22 03:01:21;;;;;;;17.02;13.40;;;;;;;-0.83;100.00;103170.19;4704230;30;20084;-65
2023/01/22 03:03:57;;;;;;;17.45;12.10;;;;;;;-0.92;100.00;103167.34;4703303;30;20154;-63
2023/01/22 03:06:27;;;;;;;15.85;11.98;;;;;;;-0.96;100.00;103165.94;4704918;30;20056;-66
2023/01/22 03:09:00;;;;;;;15.98;12.20;;;;;;;-0.97;100.00;103158.03;4703713;30;20411;-65
2023/01/22 03:11:33;;;;;;;18.10;12.05;;;;;;;-1.03;100.00;103161.22;4675499;30;20111;-65
2023/01/22 03:22:25;;;;;;;16.10;11.88;;;;;;;-1.11;100.00;103156.53;4722132;30;20081;-64
2023/01/22 03:24:54;;;;;;;15.48;12.27;;;;;;;-1.18;100.00;103150.91;4690577;30;20049;-65
2023/01/22 03:27:25;;;;;;;15.70;11.70;;;;;;;-1.16;100.00;103145.41;4703246;30;20061;-65
2023/01/22 03:29:54;;;;;;;15.25;11.77;;;;;;;-1.05;100.00;103134.63;4714919;30;20065;-68
2023/01/22 03:32:22;;;;;;;17.58;13.15;;;;;;;-0.96;100.00;103140.97;4672377;30;20050;-65
2023/01/22 03:34:52;;;;;;;16.40;11.75;;;;;;;-0.98;100.00;103133.09;4701067;30;20045;-65
2023/01/22 03:37:21;;;;;;;16.20;12.07;;;;;;;-0.95;100.00;103135.50;4686419;30;20061;-65
2023/01/22 03:39:52;;;;;;;17.48;12.23;;;;;;;-0.95;100.00;103130.16;4700822;30;20517;-65
2023/01/22 03:42:28;;;;;;;15.43;11.30;;;;;;;-0.97;100.00;103123.25;4700360;30;20053;-66
2023/01/22 03:44:55;;;;;;;15.85;11.65;;;;;;;-1.00;100.00;103121.69;4672495;30;20050;-64
2023/01/22 03:47:24;;;;;;;15.73;11.38;;;;;;;-1.05;100.00;103123.91;4672537;30;20057;-66
2023/01/22 03:49:52;;;;;;;16.27;11.73;;;;;;;-1.07;100.00;103126.72;4686587;30;20144;-65
2023/01/22 03:52:20;;;;;;;15.32;11.52;;;;;;;-1.04;100.00;103130.09;4704468;30;20049;-65
2023/01/22 03:54:48;;;;;;;18.08;11.85;;;;;;;-1.11;100.00;103128.00;4694662;30;20510;-65
2023/01/22 03:57:16;;;;;;;16.15;11.73;;;;;;;-1.05;100.00;103129.28;4703513;30;20045;-65
2023/01/22 03:59:44;;;;;;;15.85;11.85;;;;;;;-1.00;100.00;103137.72;4689518;30;20132;-64
2023/01/22 04:02:12;;;;;;;14.88;11.20;;;;;;;-0.97;100.00;103137.47;4718231;30;20077;-64
2023/01/22 04:04:53;;;;;;;16.48;11.98;;;;;;;-1.00;100.00;103127.03;4705798;30;20060;-64
2023/01/22 04:07:21;;;;;;;15.80;12.07;;;;;;;-0.97;100.00;103126.75;4709599;30;20084;-66
2023/01/22 04:09:51;;;;;;;15.80;12.07;;;;;;;-1.00;100.00;103132.38;4725845;30;20077;-64
2023/01/22 04:12:19;;;;;;;16.90;12.23;;;;;;;-1.05;100.00;103125.75;4712172;30;20057;-64
2023/01/22 04:14:47;;;;;;;16.25;12.75;;;;;;;-1.04;100.00;103128.28;4725291;30;20458;-66
2023/01/22 04:17:15;;;;;;;15.93;12.40;;;;;;;-1.02;100.00;103129.00;4718952;30;20077;-65
2023/01/22 04:20:03;;;;;;;15.50;11.70;;;;;;;-1.06;100.00;103122.22;4715256;30;20529;-63
2023/01/22 04:22:42;;;;;;;17.77;12.27;;;;;;;-1.05;100.00;103133.78;4702056;30;20061;-66
2023/01/22 04:25:12;;;;;;;16.08;11.38;;;;;;;-1.10;100.00;103127.00;4720290;30;20061;-64
2023/01/22 04:27:40;;;;;;;16.58;11.95;;;;;;;-1.15;100.00;103118.53;4703590;30;20057;-65
2023/01/22 04:30:08;;;;;;;16.77;11.52;;;;;;;-1.17;100.00;103119.63;4717722;30;20068;-64
2023/01/22 04:32:36;;;;;;;17.20;12.07;;;;;;;-1.09;100.00;103123.31;4718072;30;20053;-65
2023/01/22 04:35:22;;;;;;;15.88;11.10;;;;;;;-1.03;100.00;103116.59;4705145;30;20057;-64
2023/01/22 04:37:54;;;;;;;16.30;11.30;;;;;;;-1.04;100.00;103119.41;4716945;30;20495;-65
2023/01/22 04:40:22;;;;;;;17.05;11.38;;;;;;;-1.08;100.00;103118.84;4702738;30;20049;-65
2023/01/22 04:42:50;;;;;;;16.00;11.50;;;;;;;-1.11;100.00;103113.75;4717188;30;20079;-66
2023/01/22 04:45:19;;;;;;;15.75;11.15;;;;;;;-1.08;100.00;103118.84;4717765;30;20056;-66
2023/01/22 04:47:47;;;;;;;14.82;10.60;;;;;;;-1.09;100.00;103117.13;4717301;30;20077;-65
2023/01/22 04:50:21;;;;;;;15.07;10.57;;;;;;;-1.08;100.00;103119.69;4718575;30;20057;-65
2023/01/22 04:52:50;;;;;;;13.80;10.07;;;;;;;-1.05;100.00;103115.06;4703035;30;20559;-65
2023/01/22 04:55:19;;;;;;;13.90;9.80;;;;;;;-1.04;100.00;103120.25;4717713;30;20468;-64
2023/01/22 04:57:59;;;;;;;12.85;9.63;;;;;;;-1.00;100.00;103121.69;4712818;30;20492;-66
2023/01/22 05:00:29;;;;;;;14.80;9.98;;;;;;;-0.99;100.00;103123.38;4715375;30;20508;-67
2023/01/22 05:03:00;;;;;;;17.33;10.18;;;;;;;-0.97;100.00;103118.72;4714511;30;20053;-67
2023/01/22 05:05:29;;;;;;;11.85;9.00;;;;;;;-0.91;100.00;103123.56;4714370;30;20085;-65
2023/01/22 05:07:57;;;;;;;14.95;9.40;;;;;;;-0.89;100.00;103112.69;4711743;30;20131;-66
2023/01/22 05:10:25;;;;;;;13.10;9.43;;;;;;;-0.91;100.00;103117.34;4688415;30;20066;-65
2023/01/22 05:12:53;;;;;;;13.43;9.73;;;;;;;-0.94;100.00;103125.63;4702428;30;20064;-65
2023/01/22 05:15:23;;;;;;;13.02;9.45;;;;;;;-0.94;100.00;103115.81;4702976;30;20049;-65
2023/01/22 05:17:55;;;;;;;13.57;9.95;;;;;;;-0.97;100.00;103115.22;4702730;30;20057;-68
2023/01/22 05:20:24;;;;;;;15.25;10.70;;;;;;;-1.03;100.00;103113.06;4702246;30;20092;-65
2023/01/22 05:22:52;;;;;;;12.45;9.27;;;;;;;-1.01;100.00;103120.00;4683288;30;20064;-63
2023/01/22 05:25:24;;;;;;;13.70;9.85;;;;;;;-0.95;100.00;103108.75;4717522;30;20091;-64
2023/01/22 05:27:51;;;;;;;13.57;10.35;;;;;;;-0.90;100.00;103121.72;4717045;30;20057;-63
2023/01/22 05:30:39;;;;;;;16.25;10.18;;;;;;;-0.92;100.00;103123.69;4718257;30;20061;-64
2023/01/22 05:33:33;;;;;;;13.52;10.40;;;;;;;-1.00;100.00;103132.38;4676242;30;20057;-64
2023/01/22 05:36:02;;;;;;;15.52;10.45;;;;;;;-1.03;100.00;103131.78;4688184;30;20071;-64
2023/01/22 05:38:31;;;;;;;13.43;10.10;;;;;;;-1.08;100.00;103132.22;4688729;30;20152;-63
2023/01/22 05:40:59;;;;;;;15.30;10.88;;;;;;;-1.10;100.00;103137.69;4702889;30;20131;-65
2023/01/22 05:43:31;;;;;;;15.95;11.18;;;;;;;-1.09;100.00;103136.69;4716665;30;20565;-64
2023/01/22 05:46:04;;;;;;;15.68;10.63;;;;;;;-1.03;100.00;103142.50;4716040;30;20061;-64
2023/01/22 05:48:40;;;;;;;14.65;11.00;;;;;;;-1.03;100.00;103145.16;4718554;30;20045;-64
2023/01/22 05:51:14;;;;;;;14.80;10.57;;;;;;;-1.02;100.00;103139.69;4719318;30;20149;-64
2023/01/22 05:53:42;;;;;;;16.08;10.10;;;;;;;-0.98;100.00;103141.13;4719505;30;20056;-64
2023/01/22 05:56:10;;;;;;;14.23;10.27;;;;;;;-0.96;100.00;103147.19;4705494;30;20136;-64
2023/01/22 05:58:39;;;;;;;14.55;11.18;;;;;;;-0.94;100.00;103147.03;4716698;30;20099;-67
2023/01/22 06:01:07;;;;;;;16.83;10.63;;;;;;;-1.00;100.00;103148.44;4687934;30;20139;-63
2023/01/22 06:03:40;;;;;;;13.73;10.68;;;;;;;-0.97;100.00;103145.47;4719815;30;20045;-63
2023/01/22 06:06:11;;;;;;;15.50;11.65;;;;;;;-0.99;100.00;103144.75;4705496;30;20072;-64
2023/01/22 06:08:39;;;;;;;15.07;10.98;;;;;;;-0.99;100.00;103136.75;4719257;30;20118;-64
2023/01/22 06:11:13;;;;;;;15.20;11.32;;;;;;;-0.98;100.00;103135.78;4701734;30;20053;-63
2023/01/22 06:13:46;;;;;;;15.88;10.57;;;;;;;-0.99;100.00;103139.41;4703688;30;20041;-63
2023/01/22 06:16:36;;;;;;;16.08;11.68;;;;;;;-1.01;100.00;103148.56;4703249;30;20058;-66
2023/01/22 06:19:27;;;;;;;13.95;11.05;;;;;;;-1.02;100.00;103147.72;4712148;30;20119;-63
2023/01/22 06:21:55;;;;;;;17.17;11.73;;;;;;;-1.01;100.00;103149.44;4710172;30;20041;-63
2023/01/22 06:24:29;;;;;;;17.42;11.40;;;;;;;-1.01;100.00;103146.75;4702642;30;20518;-64
2023/01/22 06:26:59;;;;;;;15.70;11.00;;;;;;;-1.02;100.00;103145.03;4701756;30;20389;-65
2023/01/22 06:29:36;;;;;;;15.40;11.52;;;;;;;-0.96;100.00;103144.53;4701510;30;20139;-65
2023/01/22 06:32:07;;;;;;;15.38;10.70;;;;;;;-0.92;100.00;103137.06;4040681;30;10000703;-64
2023/01/22 06:34:35;;;;;;;17.48;10.93;;;;;;;-0.93;100.00;103138.06;4678489;30;20049;-66
2023/01/22 06:37:04;;;;;;;14.55;11.13;;;;;;;-0.89;100.00;103145.69;4701319;30;20069;-65
2023/01/22 06:39:35;;;;;;;14.88;10.90;;;;;;;-0.93;100.00;103133.53;4701801;30;20196;-64
2023/01/22 06:42:10;;;;;;;14.98;10.77;;;;;;;-0.89;100.00;103134.09;4715484;30;20068;-66
2023/01/22 06:44:38;;;;;;;14.27;10.88;;;;;;;-0.86;100.00;103145.41;4716184;30;20143;-66
2023/01/22 06:47:07;;;;;;;15.50;10.55;;;;;;;-0.84;100.00;103145.28;4687300;30;20125;-66
2023/01/22 06:49:34;;;;;;;15.18;11.50;;;;;;;-0.83;100.00;103148.78;4716716;30;20084;-65
2023/01/22 06:52:05;;;;;;;16.17;10.38;;;;;;;-0.88;100.00;103150.03;4720055;30;20068;-65
2023/01/22 06:54:33;;;;;;;12.90;10.60;;;;;;;-0.92;100.00;103139.72;4722104;30;20578;-66
2023/01/22 06:57:01;;;;;;;16.58;10.50;;;;;;;-0.91;100.00;103158.34;4717482;30;20140;-66
2023/01/22 06:59:28;;;;;;;17.45;11.23;;;;;;;-0.86;100.00;103161.47;4715778;30;20049;-66
2023/01/22 07:01:56;;;;;;;15.00;10.93;;;;;;;-0.87;100.00;103156.22;4700356;30;20148;-64
2023/01/22 07:04:24;;;;;;;14.20;10.32;;;;;;;-0.89;100.00;103160.88;4715723;30;20079;-65
2023/01/22 07:06:52;;;;;;;16.67;11.30;;;;;;;-0.89;100.00;103156.38;4716033;30;20096;-65
2023/01/22 07:09:20;;;;;;;12.80;9.93;;;;;;;-0.92;100.00;103143.25;4700261;30;20077;-65
2023/01/22 07:11:48;;;;;;;14.45;10.65;;;;;;;-0.87;100.00;103157.09;4701628;30;20061;-66
2023/01/22 07:14:16;;;;;;;14.00;10.32;;;;;;;-0.83;100.00;103154.16;4717521;30;20061;-63
2023/01/22 07:16:58;;;;;;;12.38;9.70;;;;;;;-0.92;100.00;103150.44;4719235;30;20057;-64
2023/01/22 07:19:26;;;;;;;17.52;11.52;;;;;;;-0.90;100.00;103153.81;4719990;30;20061;-64
2023/01/22 07:21:54;;;;;;;13.50;9.65;;;;;;;-0.88;100.00;103157.22;4717896;30;20064;-66
2023/01/22 07:24:22;;;;;;;13.73;10.02;;;;;;;-0.88;100.00;103154.53;4703520;30;20083;-66
2023/01/22 07:26:49;;;;;;;14.60;10.10;;;;;;;-0.83;100.00;103164.84;4702264;30;20064;-65
2023/01/22 07:29:17;;;;;;;14.90;10.45;;;;;;;-0.88;100.00;103162.56;4716954;30;20542;-64
2023/01/22 07:31:46;;;;;;;14.02;10.93;;;;;;;-0.90;100.00;103154.66;4700430;30;20869;-64
2023/01/22 07:34:16;;;;;;;15.98;10.18;;;;;;;-0.84;100.00;103157.78;4715084;30;20064;-65
2023/01/22 07:36:45;;;;;;;15.80;10.48;;;;;;;-0.89;100.00;103159.06;4715384;30;20145;-65
2023/01/22 07:39:13;;;;;;;15.68;10.70;;;;;;;-0.87;100.00;103150.88;4714951;30;20049;-65
2023/01/22 07:41:41;;;;;;;13.82;9.75;;;;;;;-0.87;100.00;103158.91;4699712;30;20041;-64
2023/01/22 07:44:12;;;;;;;13.20;9.63;;;;;;;-0.84;100.00;103160.47;4715024;30;20049;-66
2023/01/22 07:46:40;;;;;;;12.32;8.85;;;;;;;-0.86;100.00;103158.78;4716046;30;20080;-66
2023/01/22 07:49:07;;;;;;;12.73;9.32;;;;;;;-0.84;100.00;103164.00;4715895;30;20123;-67
2023/01/22 07:51:35;;;;;;;12.75;9.38;;;;;;;-0.82;100.00;103166.53;4715833;30;20088;-65
2023/01/22 07:54:03;;;;;;;13.55;9.50;;;;;;;-0.82;100.00;103166.53;4716533;30;20060;-66
2023/01/22 07:56:31;;;;;;;13.45;9.25;;;;;;;-0.86;100.00;103163.28;4699472;30;20072;-67
2023/01/22 07:58:58;;;;;;;13.25;9.00;;;;;;;-0.82;100.00;103172.72;4699878;30;20577;-65
2023/01/22 08:01:26;;;;;;;12.77;8.55;;;;;;;-0.79;100.00;103172.47;4707398;30;20083;-66
2023/01/22 08:03:56;;;;;;;11.95;8.20;;;;;;;-0.75;100.00;103175.72;4727049;30;20056;-69
2023/01/22 08:06:23;;;;;;;11.38;7.85;;;;;;;-0.74;100.00;103174.75;4716249;30;20121;-66
2023/01/22 08:08:51;;;;;;;11.63;8.02;;;;;;;-0.77;100.00;103181.22;4723461;30;20087;-64
2023/01/22 08:11:19;;;;;;;10.98;7.70;;;;;;;-0.75;100.00;103175.72;4727278;30;20061;-66
2023/01/22 08:13:47;;;;;;;12.32;7.40;;;;;;;-0.75;100.00;103189.09;4719164;30;20119;-65
2023/01/22 08:16:14;;;;;;;9.82;7.28;;;;;;;-0.76;100.00;103182.06;4732706;30;20065;-65
2023/01/22 08:18:42;;;;;;;10.75;6.95;;;;;;;-0.71;100.00;103185.19;4719810;30;20053;-65
2023/01/22 08:21:10;;;;;;;10.65;7.07;;;;;;;-0.75;100.00;103176.56;4703671;30;20053;-65
2023/01/22 08:23:38;;;;;;;10.98;7.28;;;;;;;-0.66;100.00;103182.94;4714775;30;20080;-65
2023/01/22 08:26:05;;;;;;;10.45;7.13;;;;;;;-0.66;100.00;103188.28;4702909;30;20410;-66
2023/01/22 08:28:33;;;;;;;14.57;7.22;;;;;;;-0.63;100.00;103187.19;4688108;30;20123;-66
2023/01/22 08:31:02;;;;;;;13.75;7.85;;;;;;;-0.63;100.00;103197.88;4717494;30;20069;-64
2023/01/22 08:33:32;;;;;;;11.05;6.80;;;;;;;-0.67;100.00;103191.97;4718008;30;20092;-63
2023/01/22 08:35:59;;;;;;;11.95;7.75;;;;;;;-0.69;100.00;103193.94;4703146;30;20053;-64
2023/01/22 08:38:27;;;;;;;11.88;6.90;;;;;;;-0.67;100.00;103191.97;4718965;30;20415;-64
2023/01/22 08:40:55;;;;;;;13.35;7.15;;;;;;;-0.64;100.00;103191.69;4703101;30;20509;-62
2023/01/22 08:43:23;;;;;;;10.32;6.90;;;;;;;-0.60;100.00;103193.13;4719780;30;20071;-64
2023/01/22 08:45:51;;;;;;;11.13;6.75;;;;;;;-0.58;100.00;103191.13;4718835;30;20057;-63
2023/01/22 08:48:18;;;;;;;11.98;6.32;;;;;;;-0.55;100.00;103192.72;4702977;30;20064;-64
2023/01/22 08:50:46;;;;;;;10.68;6.93;;;;;;;-0.53;100.00;103191.59;4703106;30;20053;-64
2023/01/22 08:53:14;;;;;;;11.30;6.68;;;;;;;-0.53;100.00;103188.91;4718528;30;20422;-64
2023/01/22 08:55:47;;;;;;;10.90;6.70;;;;;;;-0.57;100.00;103182.13;4717031;30;20059;-64
2023/01/22 08:58:14;;;;;;;11.35;7.30;;;;;;;-0.57;100.00;103190.16;4716822;30;20487;-63
2023/01/22 09:00:43;;;;;;;10.63;6.88;;;;;;;-0.55;100.00;103195.41;4718386;30;20081;-63
2023/01/22 09:03:11;;;;;;;10.18;6.68;;;;;;;-0.55;100.00;103190.88;4719383;30;20057;-65
2023/01/22 09:05:40;;;;;;;10.57;6.70;;;;;;;-0.57;100.00;103203.56;4716926;30;20088;-65
2023/01/22 09:08:08;;;;;;;10.63;6.53;;;;;;;-0.60;100.00;103198.47;4718266;30;20061;-64
2023/01/22 09:10:36;;;;;;;10.52;6.00;;;;;;;-0.58;100.00;103201.84;4702640;30;20111;-66
2023/01/22 09:13:03;;;;;;;10.02;6.50;;;;;;;-0.53;100.00;103206.78;4718118;30;20081;-67
2023/01/22 09:15:31;;;;;;;9.88;6.70;;;;;;;-0.50;100.00;103199.34;4718241;30;20564;-65
2023/01/22 09:17:59;;;;;;;10.27;6.50;;;;;;;-0.50;100.00;103207.38;4717111;30;20068;-64
2023/01/22 09:20:27;;;;;;;13.25;6.53;;;;;;;-0.51;100.00;103208.34;4718364;30;20371;-65
2023/01/22 09:22:54;;;;;;;10.07;6.53;;;;;;;-0.54;100.00;103202.44;4702825;30;20140;-64
2023/01/22 09:25:22;;;;;;;9.13;6.28;;;;;;;-0.58;100.00;103201.84;4719484;30;20053;-64
2023/01/22 09:27:55;;;;;;;13.23;6.57;;;;;;;-0.58;100.00;103195.66;4719538;30;20057;-65
2023/01/22 09:30:25;;;;;;;10.07;6.72;;;;;;;-0.55;100.00;103196.25;4720104;30;20053;-65
2023/01/22 09:32:52;;;;;;;10.30;6.30;;;;;;;-0.58;100.00;103199.16;4720447;30;20053;-64
2023/01/22 09:35:20;;;;;;;12.52;6.70;;;;;;;-0.59;100.00;103202.00;4720197;30;20092;-64
2023/01/22 09:37:48;;;;;;;10.20;6.50;;;;;;;-0.59;100.00;103205.50;4721589;30;20053;-64
2023/01/22 09:40:43;;;;;;;10.77;5.90;;;;;;;-0.54;100.00;103205.94;4706164;30;20063;-64
2023/01/22 09:43:24;;;;;;;10.00;6.55;;;;;;;-0.49;100.00;103208.22;4720719;30;20511;-64
2023/01/22 09:45:55;;;;;;;9.75;6.05;;;;;;;-0.46;100.00;103211.50;4720626;30;20057;-65
2023/01/22 09:48:24;;;;;;;10.55;6.40;;;;;;;-0.45;100.00;103217.69;4705981;30;20119;-64
2023/01/22 09:50:52;;;;;;;9.90;6.70;;;;;;;-0.43;100.00;103215.72;4705677;30;20107;-64
2023/01/22 09:53:20;;;;;;;11.68;6.88;;;;;;;-0.41;100.00;103218.25;4721060;30;20061;-65
2023/01/22 09:55:51;;;;;;;12.05;6.30;;;;;;;-0.40;100.00;103218.13;4720868;30;20055;-64
2023/01/22 09:58:21;;;;;;;10.38;6.30;;;;;;;-0.39;100.00;103217.13;4719504;30;20476;-65
2023/01/22 10:00:54;;;;;;;10.05;6.03;;;;;;;-0.38;100.00;103223.34;4705288;30;20115;-64
2023/01/22 10:03:41;;;;;;;10.60;6.22;;;;;;;-0.36;100.00;103207.97;4718886;30;20404;-65
2023/01/22 10:06:12;;;;;;;10.60;6.10;;;;;;;-0.35;100.00;103223.09;4719426;30;20083;-64
2023/01/22 10:08:54;;;;;;;10.57;6.25;;;;;;;-0.36;100.00;103218.69;4704758;30;20084;-65
2023/01/22 10:11:22;;;;;;;8.32;5.70;;;;;;;-0.36;100.00;103221.38;4705046;30;20423;-64
2023/01/22 10:13:54;;;;;;;10.77;6.50;;;;;;;-0.38;100.00;103228.72;4720779;30;20053;-63
2023/01/22 10:16:24;;;;;;;11.73;6.30;;;;;;;-0.40;100.00;103233.34;4720710;30;20076;-64
2023/01/22 10:18:58;;;;;;;10.55;5.93;;;;;;;-0.38;100.00;103231.41;4719839;30;20045;-65
2023/01/22 10:21:31;;;;;;;9.32;5.70;;;;;;;-0.39;100.00;103218.97;4719437;30;20045;-64
2023/01/22 10:24:00;;;;;;;8.73;5.80;;;;;;;-0.36;100.00;103216.00;4719527;30;20111;-64
2023/01/22 10:26:58;;;;;;;9.57;6.10;;;;;;;-0.34;100.00;103220.25;4705186;30;20064;-64
2023/01/22 10:29:35;;;;;;;12.75;5.75;;;;;;;-0.34;100.00;103219.41;4720487;30;20111;-64
2023/01/22 10:32:22;;;;;;;9.90;5.85;;;;;;;-0.30;100.00;103218.16;4704869;30;20053;-65
2023/01/22 10:35:10;;;;;;;11.32;5.85;;;;;;;-0.28;100.00;103216.19;4719535;30;20080;-65
2023/01/22 10:37:46;;;;;;;9.73;5.70;;;;;;;-0.30;100.00;103212.78;4713710;30;20071;-66
2023/01/22 10:40:31;;;;;;;9.63;5.50;;;;;;;-0.31;100.00;103220.00;4704801;30;20092;-64
2023/01/22 10:43:19;;;;;;;9.40;5.90;;;;;;;-0.30;100.00;103215.47;4719876;30;20136;-64
2023/01/22 10:46:21;;;;;;;10.63;6.45;;;;;;;-0.26;100.00;103211.56;4690765;30;20495;-65
2023/01/22 10:49:00;;;;;;;8.43;5.35;;;;;;;-0.23;100.00;103213.94;4676707;30;20425;-64
2023/01/22 10:51:31;;;;;;;9.13;5.43;;;;;;;-0.22;100.00;103212.94;4704528;30;20061;-64
2023/01/22 10:53:59;;;;;;;9.95;5.47;;;;;;;-0.22;100.00;103221.84;4720578;30;20521;-64
2023/01/22 10:56:31;;;;;;;8.88;5.20;;;;;;;-0.15;100.00;103219.44;4704547;30;20115;-64
2023/01/22 10:59:15;;;;;;;8.10;5.47;;;;;;;-0.14;100.00;103214.97;4718754;30;20419;-62
2023/01/22 11:01:47;;;;;;;9.27;5.55;;;;;;;-0.19;100.00;103204.66;4719319;30;20071;-63
2023/01/22 11:04:24;;;;;;;9.00;5.32;;;;;;;-0.21;100.00;103209.31;4720019;30;20084;-64
2023/01/22 11:07:20;;;;;;;9.43;5.25;;;;;;;-0.20;100.00;103213.66;4720214;30;20060;-64
2023/01/22 11:10:06;;;;;;;;;;;;;;;-0.14;100.00;103210.44;4720804;30;20088;-64
2023/01/22 11:12:35;;;;;;;;;;;;;;;-0.11;100.00;103212.84;4720241;30;19938;-65
2023/01/22 11:15:23;;;;;;;10.18;5.82;;;;;;;-0.04;100.00;103205.94;4719288;30;20049;-66
2023/01/22 11:17:56;;;;;;;8.82;5.43;;;;;;;-0.04;100.00;103210.47;4719920;30;20057;-64
2023/01/22 11:20:30;;;;;;;8.30;5.55;;;;;;;-0.05;100.00;103200.72;4719040;30;20520;-64
2023/01/22 11:23:13;;;;;;;8.98;5.45;;;;;;;-0.05;100.00;103198.91;4719851;30;20061;-64
2023/01/22 11:26:16;;;;;;;11.10;5.80;;;;;;;-0.09;100.00;103197.47;4718771;30;20053;-64
2023/01/22 11:29:34;;;;;;;8.07;5.10;;;;;;;-0.03;100.00;103188.03;4699211;30;20155;-63
2023/01/22 11:32:36;;;;;;;8.98;5.35;;;;;;;-0.01;100.00;103184.22;4704447;30;20068;-66
2023/01/22 11:35:35;;;;;;;9.48;5.53;;;;;;;0.04;100.00;103180.28;4719160;30;20053;-65